createdAt,value
2022-08-21T00:00:29.107Z,19.24
2022-08-21T00:03:02.331Z,19.19
2022-08-21T00:05:29.930Z,19.14
2022-08-21T00:07:57.468Z,19.12
2022-08-21T00:10:25.201Z,19.09
2022-08-21T00:12:52.797Z,19.04
2022-08-21T00:15:21.166Z,19.02
2022-08-21T00:17:50.187Z,18.97
2022-08-21T00:20:17.987Z,18.95
2022-08-21T00:22:46.454Z,18.92
2022-08-21T00:25:14.530Z,18.91
2022-08-21T00:27:43.246Z,18.88
2022-08-21T00:30:11.528Z,18.84
2022-08-21T00:32:47.878Z,18.81
2022-08-21T00:35:17.996Z,18.77
2022-08-21T00:37:45.721Z,18.74
2022-08-21T00:40:14.862Z,18.72
2022-08-21T00:42:42.417Z,18.70
2022-08-21T00:45:10.399Z,18.67
2022-08-21T00:47:38.046Z,18.66
2022-08-21T00:50:07.820Z,18.65
2022-08-21T00:52:40.906Z,18.62
2022-08-21T00:55:09.700Z,18.59
2022-08-21T00:57:38.741Z,18.57
2022-08-21T01:00:08.945Z,18.55
2022-08-21T01:02:36.394Z,18.52
2022-08-21T01:05:04.452Z,18.51
2022-08-21T01:07:32.459Z,18.50
2022-08-21T01:10:01.304Z,18.48
2022-08-21T01:12:29.962Z,18.48
2022-08-21T01:14:57.608Z,18.46
2022-08-21T01:17:25.043Z,18.44
2022-08-21T01:19:52.491Z,18.42
2022-08-21T01:22:21.514Z,18.38
2022-08-21T01:24:48.953Z,18.34
2022-08-21T01:27:17.098Z,18.31
2022-08-21T01:29:45.685Z,18.29
2022-08-21T01:32:14.103Z,18.27
2022-08-21T01:34:42.649Z,18.25
2022-08-21T01:37:10.166Z,18.23
2022-08-21T01:39:39.227Z,18.21
2022-08-21T01:42:06.918Z,18.18
2022-08-21T01:44:35.746Z,18.15
2022-08-21T01:47:04.334Z,18.13
2022-08-21T01:49:31.770Z,18.11
2022-08-21T01:51:59.164Z,18.10
2022-08-21T01:54:26.620Z,18.07
2022-08-21T01:56:55.809Z,18.05
2022-08-21T01:59:23.339Z,18.01
2022-08-21T02:01:51.014Z,17.99
2022-08-21T02:04:18.604Z,17.97
2022-08-21T02:06:46.057Z,17.95
2022-08-21T02:09:14.276Z,17.93
2022-08-21T02:11:42.261Z,17.93
2022-08-21T02:14:12.749Z,17.91
2022-08-21T02:16:40.196Z,17.89
2022-08-21T02:19:07.826Z,17.88
2022-08-21T02:21:35.417Z,17.88
2022-08-21T02:24:02.861Z,17.88
2022-08-21T02:26:30.317Z,17.86
2022-08-21T02:28:57.785Z,17.85
2022-08-21T02:31:27.105Z,17.83
2022-08-21T02:33:54.547Z,17.81
2022-08-21T02:36:22.008Z,17.81
2022-08-21T02:38:50.393Z,17.78
2022-08-21T02:41:18.598Z,17.76
2022-08-21T02:43:46.117Z,17.73
2022-08-21T02:46:15.081Z,17.70
2022-08-21T02:48:44.061Z,17.68
2022-08-21T02:51:12.170Z,17.65
2022-08-21T02:53:39.907Z,17.64
2022-08-21T02:56:09.773Z,17.83
2022-08-21T02:58:40.404Z,17.90
2022-08-21T03:01:10.589Z,17.92
2022-08-21T03:03:38.837Z,17.93
2022-08-21T03:06:09.804Z,17.94
2022-08-21T03:08:38.465Z,17.92
2022-08-21T03:11:07.076Z,17.91
2022-08-21T03:13:35.584Z,17.88
2022-08-21T03:16:05.224Z,17.87
2022-08-21T03:18:37.740Z,17.85
2022-08-21T03:21:07.482Z,18.46
2022-08-21T03:23:35.150Z,18.57
2022-08-21T03:26:02.945Z,18.23
2022-08-21T03:28:30.695Z,18.14
2022-08-21T03:30:58.286Z,18.06
2022-08-21T03:33:25.975Z,17.99
2022-08-21T03:36:01.348Z,17.95
2022-08-21T03:38:32.015Z,17.90
2022-08-21T03:41:00.905Z,17.87
2022-08-21T03:43:31.129Z,17.85
2022-08-21T03:46:00.487Z,17.83
2022-08-21T03:48:28.140Z,17.78
2022-08-21T03:50:55.741Z,17.75
2022-08-21T03:53:23.722Z,17.71
2022-08-21T03:55:54.002Z,17.71
2022-08-21T03:58:24.259Z,17.69
2022-08-21T04:00:54.849Z,17.66
2022-08-21T04:03:22.503Z,17.61
2022-08-21T04:05:50.180Z,17.61
2022-08-21T04:08:19.591Z,17.57
2022-08-21T04:10:48.905Z,17.55
2022-08-21T04:13:18.141Z,17.56
2022-08-21T04:15:45.782Z,17.50
2022-08-21T04:18:14.033Z,17.50
2022-08-21T04:20:42.903Z,17.49
2022-08-21T04:23:23.593Z,17.46
2022-08-21T04:25:52.709Z,17.45
2022-08-21T04:28:23.347Z,17.47
2022-08-21T04:30:51.614Z,17.44
2022-08-21T04:33:19.330Z,17.42
2022-08-21T04:35:46.973Z,17.42
2022-08-21T04:38:14.755Z,17.40
2022-08-21T04:40:42.245Z,17.21
2022-08-21T04:43:10.933Z,17.11
2022-08-21T04:45:41.584Z,17.05
2022-08-21T04:48:13.954Z,17.00
2022-08-21T04:50:42.644Z,16.96
2022-08-21T04:53:14.451Z,17.14
2022-08-21T04:55:42.670Z,17.01
2022-08-21T04:58:11.327Z,17.15
2022-08-21T05:00:40.069Z,17.04
2022-08-21T05:03:08.564Z,17.18
2022-08-21T05:05:36.607Z,17.24
2022-08-21T05:08:05.252Z,17.29
2022-08-21T05:10:33.775Z,17.31
2022-08-21T05:13:02.449Z,17.32
2022-08-21T05:15:30.929Z,17.93
2022-08-21T05:18:01.396Z,17.47
2022-08-21T05:20:29.432Z,17.30
2022-08-21T05:22:57.398Z,17.37
2022-08-21T05:25:25.750Z,17.41
2022-08-21T05:27:55.856Z,17.39
2022-08-21T05:30:25.782Z,18.05
2022-08-21T05:33:00.137Z,17.76
2022-08-21T05:35:28.395Z,17.64
2022-08-21T05:37:56.249Z,17.63
2022-08-21T05:40:24.050Z,17.46
2022-08-21T05:42:54.431Z,17.56
2022-08-21T05:45:41.302Z,17.58
2022-08-21T05:48:14.095Z,18.25
2022-08-21T05:50:41.969Z,17.80
2022-08-21T05:53:10.622Z,17.78
2022-08-21T05:55:44.247Z,17.78
2022-08-21T05:58:13.357Z,17.76
2022-08-21T06:00:41.180Z,17.75
2022-08-21T06:03:14.517Z,17.76
2022-08-21T06:05:42.142Z,17.73
2022-08-21T06:08:09.814Z,17.73
2022-08-21T06:10:37.399Z,17.72
2022-08-21T06:13:05.562Z,17.74
2022-08-21T06:15:33.286Z,17.76
2022-08-21T06:18:00.914Z,17.80
2022-08-21T06:20:30.189Z,17.82
2022-08-21T06:22:57.901Z,17.84
2022-08-21T06:25:25.962Z,17.85
2022-08-21T06:27:53.680Z,17.88
2022-08-21T06:30:21.591Z,17.90
2022-08-21T06:32:49.241Z,17.91
2022-08-21T06:35:16.858Z,17.95
2022-08-21T06:37:45.823Z,17.98
2022-08-21T06:40:14.016Z,17.99
2022-08-21T06:42:42.813Z,18.01
2022-08-21T06:45:11.552Z,18.06
2022-08-21T06:47:39.265Z,18.09
2022-08-21T06:50:09.268Z,18.13
2022-08-21T06:52:36.978Z,18.16
2022-08-21T06:55:07.887Z,18.22
2022-08-21T06:57:35.697Z,18.23
2022-08-21T07:00:04.010Z,18.24
2022-08-21T07:02:31.602Z,18.26
2022-08-21T07:05:00.238Z,18.33
2022-08-21T07:07:27.879Z,18.91
2022-08-21T07:09:55.570Z,19.06
2022-08-21T07:12:24.588Z,18.83
2022-08-21T07:14:52.176Z,18.75
2022-08-21T07:17:19.796Z,18.79
2022-08-21T07:19:47.804Z,18.78
2022-08-21T07:22:17.155Z,18.83
2022-08-21T07:24:44.770Z,18.86
2022-08-21T07:27:12.420Z,18.87
2022-08-21T07:29:41.480Z,18.90
2022-08-21T07:32:09.342Z,18.91
2022-08-21T07:34:37.160Z,18.94
2022-08-21T07:37:06.194Z,18.98
2022-08-21T07:39:37.897Z,18.99
2022-08-21T07:42:08.315Z,19.02
2022-08-21T07:44:36.336Z,19.09
2022-08-21T07:47:05.726Z,19.16
2022-08-21T07:49:33.371Z,19.22
2022-08-21T07:52:00.969Z,19.29
2022-08-21T07:54:33.546Z,19.36
2022-08-21T07:57:02.374Z,19.41
2022-08-21T07:59:30.431Z,19.51
2022-08-21T08:01:58.436Z,19.59
2022-08-21T08:04:27.398Z,19.67
2022-08-21T08:06:55.230Z,19.73
2022-08-21T08:09:22.873Z,19.80
2022-08-21T08:11:50.538Z,19.81
2022-08-21T08:14:18.471Z,19.89
2022-08-21T08:16:46.230Z,19.93
2022-08-21T08:19:13.909Z,20.46
2022-08-21T08:21:43.028Z,20.26
2022-08-21T08:24:18.976Z,20.25
2022-08-21T08:26:53.398Z,20.27
2022-08-21T08:29:22.227Z,20.16
2022-08-21T08:31:49.923Z,20.26
2022-08-21T08:34:25.411Z,20.26
2022-08-21T08:36:55.423Z,20.28
2022-08-21T08:39:27.036Z,20.29
2022-08-21T08:42:01.678Z,20.30
2022-08-21T08:44:32.697Z,20.30
2022-08-21T08:47:01.482Z,20.28
2022-08-21T08:49:33.745Z,20.29
2022-08-21T08:53:53.374Z,20.19
2022-08-21T08:56:24.916Z,20.17
2022-08-21T08:58:54.139Z,20.14
2022-08-21T09:01:22.867Z,20.24
2022-08-21T09:03:52.842Z,20.21
2022-08-21T09:06:31.058Z,20.26
2022-08-21T09:09:05.246Z,20.26
2022-08-21T09:11:38.573Z,20.30
2022-08-21T09:14:12.399Z,20.34
2022-08-21T09:16:46.425Z,20.34
2022-08-21T09:19:30.203Z,20.40
2022-08-21T09:22:04.569Z,20.44
2022-08-21T09:24:36.525Z,20.46
2022-08-21T09:27:09.007Z,20.54
2022-08-21T09:29:40.769Z,20.67
2022-08-21T09:32:17.978Z,20.75
2022-08-21T09:34:58.362Z,20.75
2022-08-21T09:37:26.635Z,20.73
2022-08-21T09:39:55.739Z,20.77
2022-08-21T09:42:26.870Z,20.83
2022-08-21T09:45:09.710Z,20.93
2022-08-21T09:47:37.868Z,20.96
2022-08-21T09:50:16.034Z,21.09
2022-08-21T09:52:56.973Z,21.17
2022-08-21T09:55:52.182Z,21.24
2022-08-21T09:58:20.393Z,21.25
2022-08-21T10:00:59.661Z,21.25
2022-08-21T10:03:27.844Z,21.24
2022-08-21T10:05:59.817Z,21.22
2022-08-21T10:08:30.589Z,21.25
2022-08-21T10:11:05.196Z,21.31
2022-08-21T10:13:45.850Z,21.32
2022-08-21T10:16:20.287Z,21.33
2022-08-21T10:18:54.022Z,21.30
2022-08-21T10:21:25.583Z,21.26
2022-08-21T10:24:03.367Z,21.31
2022-08-21T10:26:44.921Z,21.33
2022-08-21T10:29:20.026Z,21.37
2022-08-21T10:31:56.384Z,21.40
2022-08-21T10:34:33.969Z,21.44
2022-08-21T10:39:26.544Z,21.63
2022-08-21T10:42:19.092Z,21.77
2022-08-21T10:44:53.682Z,21.89
2022-08-21T10:47:26.786Z,21.92
2022-08-21T10:50:01.503Z,21.95
2022-08-21T10:52:38.731Z,21.96
2022-08-21T10:55:16.547Z,22.01
2022-08-21T10:57:49.898Z,22.09
2022-08-21T11:00:19.876Z,22.18
2022-08-21T11:02:51.797Z,22.35
2022-08-21T11:05:23.128Z,22.46
2022-08-21T11:07:55.840Z,22.55
2022-08-21T11:10:30.398Z,22.57
2022-08-21T11:13:01.441Z,22.59
2022-08-21T11:15:38.533Z,22.54
2022-08-21T11:18:17.135Z,22.50
2022-08-21T11:20:48.917Z,22.49
2022-08-21T11:23:20.307Z,22.53
2022-08-21T11:25:53.922Z,22.62
2022-08-21T11:28:25.824Z,22.67
2022-08-21T11:31:01.670Z,22.72
2022-08-21T11:33:39.990Z,22.78
2022-08-21T11:36:13.551Z,22.86
2022-08-21T11:38:43.327Z,22.86
2022-08-21T11:41:21.895Z,22.81
2022-08-21T11:43:53.894Z,22.72
2022-08-21T11:46:27.928Z,22.69
2022-08-21T11:49:08.659Z,22.69
2022-08-21T11:51:40.724Z,22.64
2022-08-21T11:54:14.415Z,22.64
2022-08-21T11:56:47.288Z,22.62
2022-08-21T11:59:21.642Z,22.61
2022-08-21T12:01:51.598Z,22.56
2022-08-21T12:04:26.176Z,22.57
2022-08-21T12:06:54.763Z,22.56
2022-08-21T12:09:33.742Z,22.65
2022-08-21T12:12:14.540Z,22.70
2022-08-21T12:14:46.802Z,22.71
2022-08-21T12:17:20.909Z,22.72
2022-08-21T12:19:59.286Z,22.79
2022-08-21T12:22:39.036Z,22.89
2022-08-21T12:25:09.466Z,23.02
2022-08-21T12:27:49.630Z,23.18
2022-08-21T12:30:27.306Z,23.26
2022-08-21T12:33:01.222Z,23.27
2022-08-21T12:35:34.160Z,23.30
2022-08-21T12:38:06.559Z,23.42
2022-08-21T12:40:42.946Z,23.46
2022-08-21T12:43:18.799Z,23.47
2022-08-21T12:45:50.027Z,23.45
2022-08-21T12:48:24.991Z,23.46
2022-08-21T12:50:54.545Z,23.54
2022-08-21T12:53:28.277Z,23.61
2022-08-21T12:56:00.712Z,23.67
2022-08-21T12:58:29.825Z,23.78
2022-08-21T13:01:01.800Z,23.98
2022-08-21T13:03:29.974Z,24.09
2022-08-21T13:05:57.744Z,24.11
2022-08-21T13:08:27.140Z,24.11
2022-08-21T13:11:00.036Z,24.18
2022-08-21T13:13:44.664Z,24.20
2022-08-21T13:16:14.871Z,24.13
2022-08-21T13:18:56.801Z,24.04
2022-08-21T13:21:30.532Z,24.05
2022-08-21T13:24:38.717Z,24.13
2022-08-21T13:26:59.598Z,24.18
2022-08-21T13:29:32.916Z,24.29
2022-08-21T13:32:02.599Z,24.35
2022-08-21T13:34:39.069Z,24.44
2022-08-21T13:38:44.769Z,24.58
2022-08-21T13:41:22.331Z,24.63
2022-08-21T13:43:58.926Z,24.60
2022-08-21T13:46:29.250Z,24.47
2022-08-21T13:48:57.226Z,24.31
2022-08-21T13:51:25.029Z,24.17
2022-08-21T13:53:55.745Z,24.11
2022-08-21T13:56:25.516Z,24.14
2022-08-21T13:58:54.206Z,24.20
2022-08-21T14:01:24.386Z,24.28
2022-08-21T14:03:54.488Z,24.34
2022-08-21T14:06:24.784Z,24.43
2022-08-21T14:08:55.712Z,24.51
2022-08-21T14:11:23.613Z,24.58
2022-08-21T14:13:53.715Z,24.64
2022-08-21T14:16:23.116Z,24.70
2022-08-21T14:18:58.444Z,24.73
2022-08-21T14:21:33.847Z,24.70
2022-08-21T14:24:08.779Z,24.74
2022-08-21T14:26:38.007Z,24.68
2022-08-21T14:29:11.250Z,24.79
2022-08-21T14:31:43.065Z,24.81
2022-08-21T14:34:13.794Z,24.81
2022-08-21T14:36:48.020Z,24.81
2022-08-21T14:39:17.434Z,24.79
2022-08-21T14:41:46.962Z,24.73
2022-08-21T14:44:14.899Z,24.68
2022-08-21T14:46:54.171Z,24.67
2022-08-21T14:49:23.936Z,24.67
2022-08-21T14:51:57.695Z,24.70
2022-08-21T14:54:28.092Z,24.72
2022-08-21T14:57:01.000Z,24.71
2022-08-21T14:59:28.600Z,24.66
2022-08-21T15:01:57.147Z,24.64
2022-08-21T15:04:24.862Z,24.59
2022-08-21T15:06:52.665Z,24.55
2022-08-21T15:09:20.287Z,24.49
2022-08-21T15:11:49.325Z,24.44
2022-08-21T15:14:20.483Z,24.34
2022-08-21T15:16:48.354Z,24.40
2022-08-21T15:19:16.146Z,24.43
2022-08-21T15:21:43.756Z,24.49
2022-08-21T15:24:11.695Z,24.51
2022-08-21T15:26:39.368Z,24.53
2022-08-21T15:29:09.414Z,24.56
2022-08-21T15:31:38.509Z,24.57
2022-08-21T15:34:06.172Z,24.56
2022-08-21T15:36:33.773Z,24.56
2022-08-21T15:39:01.392Z,24.54
2022-08-21T15:41:29.107Z,24.49
2022-08-21T15:43:56.709Z,24.43
2022-08-21T15:46:25.676Z,24.38
2022-08-21T15:48:56.559Z,24.30
2022-08-21T15:51:27.307Z,24.24
2022-08-21T15:53:54.935Z,24.20
2022-08-21T15:56:25.579Z,24.17
2022-08-21T15:58:56.634Z,24.14
2022-08-21T16:01:25.691Z,24.09
2022-08-21T16:03:54.825Z,24.06
2022-08-21T16:06:37.642Z,24.02
2022-08-21T16:09:10.293Z,23.98
2022-08-21T16:11:37.971Z,23.98
2022-08-21T16:14:05.995Z,23.98
2022-08-21T16:16:35.994Z,23.96
2022-08-21T16:19:06.880Z,23.97
2022-08-21T16:21:34.832Z,23.96
2022-08-21T16:24:02.689Z,23.95
2022-08-21T16:26:31.518Z,23.90
2022-08-21T16:29:33.278Z,23.88
2022-08-21T16:32:01.908Z,23.82
2022-08-21T16:34:29.770Z,23.75
2022-08-21T16:36:57.379Z,23.74
2022-08-21T16:39:25.220Z,23.68
2022-08-21T16:41:52.927Z,23.63
2022-08-21T16:44:20.783Z,23.57
2022-08-21T16:46:50.231Z,23.51
2022-08-21T16:49:17.921Z,23.49
2022-08-21T16:51:45.656Z,23.44
2022-08-21T16:54:13.918Z,23.41
2022-08-21T16:56:45.739Z,23.36
2022-08-21T16:59:15.231Z,23.35
2022-08-21T17:01:45.666Z,23.33
2022-08-21T17:04:14.834Z,23.29
2022-08-21T17:06:43.954Z,23.29
2022-08-21T17:09:12.448Z,23.27
2022-08-21T17:11:42.061Z,23.26
2022-08-21T17:14:13.317Z,23.23
2022-08-21T17:16:43.195Z,23.22
2022-08-21T17:19:12.937Z,23.19
2022-08-21T17:21:42.102Z,23.19
2022-08-21T17:24:09.896Z,23.18
2022-08-21T17:26:37.953Z,23.15
2022-08-21T17:29:09.721Z,23.17
2022-08-21T17:31:37.986Z,23.14
2022-08-21T17:34:07.325Z,23.12
2022-08-21T17:36:35.078Z,23.09
2022-08-21T17:39:05.455Z,23.08
2022-08-21T17:41:33.159Z,23.01
2022-08-21T17:44:06.257Z,22.99
2022-08-21T17:46:34.176Z,22.97
2022-08-21T17:49:01.910Z,22.96
2022-08-21T17:51:29.569Z,22.94
2022-08-21T17:53:57.378Z,22.94
2022-08-21T17:56:28.319Z,22.89
2022-08-21T17:58:56.055Z,22.84
2022-08-21T18:01:24.126Z,22.80
2022-08-21T18:03:51.823Z,22.76
2022-08-21T18:06:19.446Z,22.74
2022-08-21T18:08:47.180Z,22.69
2022-08-21T18:11:23.149Z,22.68
2022-08-21T18:13:54.000Z,22.65
2022-08-21T18:16:21.892Z,22.61
2022-08-21T18:18:51.417Z,22.58
2022-08-21T18:21:19.226Z,22.56
2022-08-21T18:23:46.907Z,22.56
2022-08-21T18:26:16.158Z,22.55
2022-08-21T18:28:44.438Z,22.53
2022-08-21T18:31:14.219Z,22.53
2022-08-21T18:33:43.809Z,22.51
2022-08-21T18:36:26.651Z,22.48
2022-08-21T18:38:54.965Z,22.46
2022-08-21T18:41:23.135Z,22.47
2022-08-21T18:43:50.842Z,22.46
2022-08-21T18:46:20.026Z,22.47
2022-08-21T18:48:47.666Z,22.46
2022-08-21T18:51:15.518Z,22.45
2022-08-21T18:53:43.617Z,22.42
2022-08-21T18:56:15.553Z,22.40
2022-08-21T18:58:44.931Z,22.35
2022-08-21T19:01:13.089Z,22.32
2022-08-21T19:03:42.746Z,22.30
2022-08-21T19:06:11.961Z,22.25
2022-08-21T19:08:39.822Z,22.23
2022-08-21T19:11:07.815Z,22.23
2022-08-21T19:13:36.106Z,22.20
2022-08-21T19:16:05.305Z,22.20
2022-08-21T19:18:35.445Z,22.18
2022-08-21T19:21:05.370Z,22.18
2022-08-21T19:23:35.563Z,22.16
2022-08-21T19:26:05.213Z,22.15
2022-08-21T19:28:36.667Z,22.14
2022-08-21T19:31:10.775Z,22.13
2022-08-21T19:33:41.075Z,22.12
2022-08-21T19:36:14.103Z,22.12
2022-08-21T19:38:42.616Z,22.11
2022-08-21T19:41:12.242Z,22.11
2022-08-21T19:43:43.727Z,22.10
2022-08-21T19:46:11.679Z,22.06
2022-08-21T19:48:40.679Z,22.06
2022-08-21T19:51:08.663Z,22.03
2022-08-21T19:53:37.641Z,22.03
2022-08-21T19:56:07.524Z,22.01
2022-08-21T19:58:40.629Z,22.00
2022-08-21T20:01:12.478Z,21.96
2022-08-21T20:03:45.291Z,21.97
2022-08-21T20:06:24.089Z,21.96
2022-08-21T20:08:54.631Z,21.97
2022-08-21T20:11:26.849Z,21.96
2022-08-21T20:13:54.865Z,21.95
2022-08-21T20:16:23.155Z,21.95
2022-08-21T20:18:50.747Z,21.92
2022-08-21T20:21:19.951Z,21.91
2022-08-21T20:23:49.014Z,21.88
2022-08-21T20:26:18.616Z,21.87
2022-08-21T20:28:46.347Z,21.85
2022-08-21T20:31:19.604Z,21.82
2022-08-21T20:33:49.495Z,21.81
2022-08-21T20:36:17.428Z,21.78
2022-08-21T20:41:34.847Z,21.73
2022-08-21T20:44:02.985Z,21.72
2022-08-21T20:46:33.263Z,21.71
2022-08-21T20:49:01.923Z,21.70
2022-08-21T20:51:33.070Z,21.69
2022-08-21T20:54:04.386Z,21.69
2022-08-21T20:56:39.376Z,21.69
2022-08-21T20:59:15.991Z,21.66
2022-08-21T21:01:44.751Z,21.64
2022-08-21T21:04:19.560Z,21.61
2022-08-21T21:06:49.867Z,21.60
2022-08-21T21:09:22.970Z,21.60
2022-08-21T21:11:56.216Z,21.57
2022-08-21T21:14:37.385Z,21.56
2022-08-21T21:17:09.061Z,21.53
2022-08-21T21:19:39.343Z,21.54
2022-08-21T21:22:10.077Z,21.52
2022-08-21T21:24:42.294Z,21.48
2022-08-21T21:27:18.431Z,21.49
2022-08-21T21:29:49.068Z,21.43
2022-08-21T21:32:17.900Z,21.43
2022-08-21T21:35:05.805Z,21.42
2022-08-21T21:37:39.128Z,21.42
2022-08-21T21:40:20.922Z,21.37
2022-08-21T21:42:57.950Z,21.35
2022-08-21T21:45:28.146Z,21.32
2022-08-21T21:48:04.162Z,21.29
2022-08-21T21:50:45.460Z,21.24
2022-08-21T21:53:23.858Z,21.22
2022-08-21T21:56:07.484Z,21.17
2022-08-21T21:58:46.135Z,21.14
2022-08-21T22:01:18.809Z,21.09
2022-08-21T22:03:51.348Z,21.07
2022-08-21T22:06:27.232Z,21.03
2022-08-21T22:09:00.468Z,21.00
2022-08-21T22:11:33.261Z,20.97
2022-08-21T22:14:06.290Z,20.96
2022-08-21T22:16:36.603Z,20.91
2022-08-21T22:19:13.718Z,20.92
2022-08-21T22:21:45.361Z,20.88
2022-08-21T22:24:16.826Z,20.83
2022-08-21T22:26:47.823Z,20.85
2022-08-21T22:29:19.842Z,20.83
2022-08-21T22:32:04.937Z,20.82
2022-08-21T22:35:02.315Z,20.78
2022-08-21T22:37:35.822Z,20.76
2022-08-21T22:40:04.862Z,20.73
2022-08-21T22:42:32.498Z,20.73
2022-08-21T22:45:04.789Z,20.74
2022-08-21T22:47:39.022Z,20.72
2022-08-21T22:50:16.967Z,20.72
2022-08-21T22:52:47.125Z,20.70
2022-08-21T22:55:24.120Z,20.69
2022-08-21T22:58:03.087Z,20.68
2022-08-21T23:00:44.656Z,20.66
2022-08-21T23:03:19.646Z,20.65
2022-08-21T23:05:50.753Z,20.61
2022-08-21T23:08:25.563Z,20.64
2022-08-21T23:10:59.642Z,20.62
2022-08-21T23:13:30.024Z,20.60
2022-08-21T23:16:04.719Z,20.61
2022-08-21T23:18:55.756Z,20.59
2022-08-21T23:21:29.367Z,20.57
2022-08-21T23:24:19.219Z,20.58
2022-08-21T23:26:55.361Z,20.57
2022-08-21T23:29:30.306Z,20.54
2022-08-21T23:32:04.626Z,20.57
2022-08-21T23:34:42.335Z,20.58
2022-08-21T23:37:48.340Z,20.56
2022-08-21T23:40:38.718Z,20.51
2022-08-21T23:43:24.411Z,20.49
2022-08-21T23:46:33.964Z,20.49
2022-08-21T23:49:12.402Z,20.46
2022-08-21T23:51:50.302Z,20.46
2022-08-21T23:54:22.479Z,20.43
2022-08-21T23:57:02.251Z,20.48
2022-08-21T23:59:44.762Z,20.43
